Time;durP1;ratioP1;P1;durP2;ratioP2;P2;SDS_P1;SDS_P2;PMS_P1;PMS_P2;Temp;Humidity;BMP_temperature;BMP_pressure;BME280_temperature;BME280_humidity;BME280_pressure;Samples;Min_cycle;Max_cycle;Signal;HPM_P1;HPM_P2
2024/02/26 00:00:35;;;;;;;5.60;3.13;;;;;;;;;;5073161;28;20040;-83
2024/02/26 00:03:05;;;;;;;4.20;2.63;;;;;;;;;;5073517;28;20070;-84
2024/02/26 00:05:31;;;;;;;7.60;2.73;;;;;;;;;;5074186;28;20108;-81
2024/02/26 00:07:57;;;;;;;4.30;2.22;;;;;;;;;;5072862;28;20279;-81
2024/02/26 00:10:24;;;;;;;7.40;3.13;;;;;;;;;;5073988;28;20024;-82
2024/02/26 00:12:50;;;;;;;4.25;2.53;;;;;;;;;;5072974;28;20020;-83
2024/02/26 00:15:16;;;;;;;5.70;3.13;;;;;;;;;;5071999;28;20044;-83
2024/02/26 00:17:42;;;;;;;6.38;3.13;;;;;;;;;;5074019;28;20025;-83
2024/02/26 00:20:08;;;;;;;5.10;2.95;;;;;;;;;;5072371;28;20432;-83
2024/02/26 00:22:34;;;;;;;5.20;2.65;;;;;;;;;;5072567;28;20123;-83
2024/02/26 00:25:01;;;;;;;5.60;3.25;;;;;;;;;;5072295;28;20020;-83
2024/02/26 00:27:27;;;;;;;5.85;3.30;;;;;;;;;;5071982;28;20029;-83
2024/02/26 00:29:53;;;;;;;7.28;4.28;;;;;;;;;;5072097;28;20028;-83
2024/02/26 00:32:19;;;;;;;6.70;2.88;;;;;;;;;;5071748;28;20056;-83
2024/02/26 00:34:45;;;;;;;5.43;3.22;;;;;;;;;;5073283;28;20063;-81
2024/02/26 00:37:11;;;;;;;4.75;2.70;;;;;;;;;;5071692;28;20029;-81
2024/02/26 00:39:37;;;;;;;6.63;3.13;;;;;;;;;;5071839;28;20029;-80
2024/02/26 00:42:03;;;;;;;5.85;2.55;;;;;;;;;;5073361;28;20024;-80
2024/02/26 00:44:29;;;;;;;6.63;3.58;;;;;;;;;;5073232;28;20036;-81
2024/02/26 00:46:55;;;;;;;5.07;3.15;;;;;;;;;;5072596;28;20020;-86
2024/02/26 00:49:21;;;;;;;3.85;1.98;;;;;;;;;;5072752;28;20481;-87
2024/02/26 00:51:47;;;;;;;3.58;2.05;;;;;;;;;;5074546;28;20352;-87
2024/02/26 00:54:13;;;;;;;5.38;2.58;;;;;;;;;;5078396;28;20031;-87
2024/02/26 00:56:39;;;;;;;4.57;1.73;;;;;;;;;;5085434;28;20052;-87
2024/02/26 00:59:06;;;;;;;6.88;2.58;;;;;;;;;;5092361;28;20017;-87
2024/02/26 01:01:32;;;;;;;6.43;3.42;;;;;;;;;;5075091;28;20016;-83
2024/02/26 01:03:58;;;;;;;7.03;3.50;;;;;;;;;;5071534;28;20060;-83
2024/02/26 01:06:24;;;;;;;5.25;3.00;;;;;;;;;;5072868;28;20051;-83
2024/02/26 01:08:50;;;;;;;4.32;2.08;;;;;;;;;;5071482;28;20433;-83
2024/02/26 01:11:16;;;;;;;4.25;2.03;;;;;;;;;;5070990;28;20020;-83
2024/02/26 01:13:42;;;;;;;5.00;2.25;;;;;;;;;;5071558;28;20021;-83
2024/02/26 01:16:08;;;;;;;4.60;2.33;;;;;;;;;;5071191;28;20048;-83
2024/02/26 01:18:37;;;;;;;4.78;1.92;;;;;;;;;;5071055;28;20178;-83
2024/02/26 01:21:06;;;;;;;6.63;2.53;;;;;;;;;;5071212;28;20460;-84
2024/02/26 01:23:32;;;;;;;6.03;2.15;;;;;;;;;;5071037;28;20025;-83
2024/02/26 01:25:58;;;;;;;6.43;2.80;;;;;;;;;;5071151;28;20031;-84
2024/02/26 01:28:24;;;;;;;5.50;2.28;;;;;;;;;;5070822;28;20025;-82
2024/02/26 01:30:50;;;;;;;7.43;2.95;;;;;;;;;;5071062;28;20115;-82
2024/02/26 01:33:16;;;;;;;8.85;4.82;;;;;;;;;;5070718;28;20056;-82
2024/02/26 01:35:43;;;;;;;4.78;2.05;;;;;;;;;;5070863;28;20067;-82
2024/02/26 01:38:09;;;;;;;3.28;1.58;;;;;;;;;;5071046;28;20025;-82
2024/02/26 01:40:36;;;;;;;3.22;1.92;;;;;;;;;;5070745;28;20027;-82
2024/02/26 01:43:02;;;;;;;8.60;4.10;;;;;;;;;;5071223;28;20434;-81
2024/02/26 01:45:28;;;;;;;6.90;3.17;;;;;;;;;;5070553;28;20040;-82
2024/02/26 01:47:55;;;;;;;6.05;1.90;;;;;;;;;;5070845;28;20077;-81
2024/02/26 01:50:24;;;;;;;6.28;2.60;;;;;;;;;;5070901;28;20410;-81
2024/02/26 01:52:51;;;;;;;6.78;4.53;;;;;;;;;;5070910;28;20031;-81
2024/02/26 01:55:20;;;;;;;4.85;2.22;;;;;;;;;;5070549;28;20024;-82
2024/02/26 01:57:48;;;;;;;8.02;5.45;;;;;;;;;;5070830;28;20074;-82
2024/02/26 02:00:15;;;;;;;5.55;2.95;;;;;;;;;;5070276;28;20119;-81
2024/02/26 02:02:41;;;;;;;6.97;4.25;;;;;;;;;;5071741;28;20070;-81
2024/02/26 02:05:09;;;;;;;7.47;3.20;;;;;;;;;;5070415;28;20387;-81
2024/02/26 02:07:36;;;;;;;8.68;3.50;;;;;;;;;;5071402;28;20025;-81
2024/02/26 02:10:02;;;;;;;7.32;4.03;;;;;;;;;;5070372;28;20021;-81
2024/02/26 02:12:28;;;;;;;5.32;3.28;;;;;;;;;;5070632;28;20024;-83
2024/02/26 02:14:55;;;;;;;7.10;3.75;;;;;;;;;;5070573;28;20060;-83
2024/02/26 02:17:21;;;;;;;9.02;4.78;;;;;;;;;;5070753;28;20070;-84
2024/02/26 02:19:47;;;;;;;6.78;3.75;;;;;;;;;;5070676;28;20492;-84
2024/02/26 02:22:13;;;;;;;6.75;2.78;;;;;;;;;;5070687;28;20545;-84
2024/02/26 02:24:39;;;;;;;7.85;3.97;;;;;;;;;;5070643;28;20546;-85
2024/02/26 02:27:05;;;;;;;5.70;2.58;;;;;;;;;;5070794;28;20024;-84
2024/02/26 02:29:32;;;;;;;6.07;3.42;;;;;;;;;;5070074;28;20032;-85
2024/02/26 02:31:58;;;;;;;7.63;3.95;;;;;;;;;;5071773;28;20093;-84
2024/02/26 02:34:24;;;;;;;4.75;2.75;;;;;;;;;;5069937;28;20062;-84
2024/02/26 02:36:54;;;;;;;8.85;3.88;;;;;;;;;;5070290;28;20029;-82
2024/02/26 02:39:20;;;;;;;5.22;2.70;;;;;;;;;;5069931;28;20025;-82
2024/02/26 02:41:46;;;;;;;8.65;3.97;;;;;;;;;;5071491;28;20102;-81
2024/02/26 02:44:12;;;;;;;6.45;3.35;;;;;;;;;;5070325;28;20048;-82
2024/02/26 02:46:39;;;;;;;6.70;3.70;;;;;;;;;;5069769;28;20025;-81
2024/02/26 02:49:08;;;;;;;6.78;3.92;;;;;;;;;;5070278;28;20023;-81
2024/02/26 02:51:34;;;;;;;8.07;3.40;;;;;;;;;;5069904;28;20020;-81
2024/02/26 02:54:00;;;;;;;5.43;2.95;;;;;;;;;;5071223;28;20158;-81
2024/02/26 02:56:26;;;;;;;5.72;3.55;;;;;;;;;;5070950;28;20027;-81
2024/02/26 02:58:52;;;;;;;7.88;2.95;;;;;;;;;;5073935;28;20258;-82
2024/02/26 03:01:18;;;;;;;5.68;2.17;;;;;;;;;;5073348;28;20229;-82
2024/02/26 03:03:44;;;;;;;8.43;2.13;;;;;;;;;;5074803;28;20585;-82
2024/02/26 03:06:10;;;;;;;6.55;3.05;;;;;;;;;;5073643;28;20105;-82
2024/02/26 03:08:41;;;;;;;6.60;2.53;;;;;;;;;;5073565;28;20020;-80
2024/02/26 03:11:07;;;;;;;5.47;2.58;;;;;;;;;;5073413;28;20077;-81
2024/02/26 03:13:33;;;;;;;6.30;2.92;;;;;;;;;;5073213;28;20036;-81
2024/02/26 03:16:04;;;;;;;7.80;2.78;;;;;;;;;;5073314;28;20497;-80
2024/02/26 03:18:30;;;;;;;4.65;1.48;;;;;;;;;;5073250;28;20021;-81
2024/02/26 03:20:56;;;;;;;4.78;2.33;;;;;;;;;;5073702;28;20048;-82
2024/02/26 03:23:22;;;;;;;4.82;2.20;;;;;;;;;;5073370;28;20028;-81
2024/02/26 03:25:48;;;;;;;6.80;3.90;;;;;;;;;;5073448;28;20033;-82
2024/02/26 03:28:15;;;;;;;6.18;3.60;;;;;;;;;;5074877;28;20020;-81
2024/02/26 03:30:41;;;;;;;7.15;3.33;;;;;;;;;;5072763;28;20047;-81
2024/02/26 03:33:07;;;;;;;6.43;3.55;;;;;;;;;;5074588;28;20062;-83
2024/02/26 03:35:33;;;;;;;5.30;2.63;;;;;;;;;;5073124;28;20037;-82
2024/02/26 03:37:59;;;;;;;6.18;2.03;;;;;;;;;;5073264;28;20024;-81
2024/02/26 03:40:25;;;;;;;4.97;1.98;;;;;;;;;;5072822;28;20508;-82
2024/02/26 03:42:53;;;;;;;6.93;2.95;;;;;;;;;;5073070;28;20031;-81
2024/02/26 03:45:19;;;;;;;5.30;2.92;;;;;;;;;;5072971;28;20025;-82
2024/02/26 03:47:45;;;;;;;5.40;3.72;;;;;;;;;;5074518;28;20096;-84
2024/02/26 03:50:12;;;;;;;9.10;4.22;;;;;;;;;;5073030;28;20028;-84
2024/02/26 03:52:38;;;;;;;6.38;2.47;;;;;;;;;;5073034;28;20025;-84
2024/02/26 03:55:04;;;;;;;9.80;2.95;;;;;;;;;;5074446;28;20036;-84
2024/02/26 03:57:30;;;;;;;10.50;5.10;;;;;;;;;;5072706;28;20024;-84
2024/02/26 03:59:56;;;;;;;7.78;3.10;;;;;;;;;;5072972;28;20021;-83
2024/02/26 04:02:23;;;;;;;6.80;3.40;;;;;;;;;;5072721;28;20486;-84
2024/02/26 04:04:49;;;;;;;5.38;2.85;;;;;;;;;;5072805;28;20056;-82
2024/02/26 04:07:16;;;;;;;5.57;2.20;;;;;;;;;;5074422;28;20488;-82
2024/02/26 04:09:43;;;;;;;7.03;2.35;;;;;;;;;;5073460;28;20466;-82
2024/02/26 04:12:09;;;;;;;5.97;2.63;;;;;;;;;;5077015;28;20032;-83
2024/02/26 04:14:36;;;;;;;9.98;6.25;;;;;;;;;;5076110;28;20066;-81
2024/02/26 04:17:02;;;;;;;7.28;3.47;;;;;;;;;;5075561;28;20025;-82
2024/02/26 04:19:28;;;;;;;6.60;1.90;;;;;;;;;;5072373;28;20025;-82
2024/02/26 04:21:55;;;;;;;7.93;4.18;;;;;;;;;;5072758;28;20024;-83
2024/02/26 04:24:21;;;;;;;12.55;6.78;;;;;;;;;;5072745;28;20024;-82
2024/02/26 04:26:47;;;;;;;6.07;2.20;;;;;;;;;;5072089;28;20503;-84
2024/02/26 04:29:13;;;;;;;10.75;6.63;;;;;;;;;;5073604;28;20044;-83
2024/02/26 04:31:39;;;;;;;7.15;2.35;;;;;;;;;;5072152;28;20032;-82
2024/02/26 04:34:05;;;;;;;6.72;3.40;;;;;;;;;;5072434;28;20025;-82
2024/02/26 04:36:31;;;;;;;10.45;3.25;;;;;;;;;;5072452;28;20029;-82
2024/02/26 04:38:58;;;;;;;5.70;2.80;;;;;;;;;;5072838;28;20013;-82
2024/02/26 04:41:24;;;;;;;8.98;4.15;;;;;;;;;;5075978;28;20021;-80
2024/02/26 04:43:50;;;;;;;7.68;4.50;;;;;;;;;;5075627;28;20052;-81
2024/02/26 04:46:16;;;;;;;13.10;7.40;;;;;;;;;;5062512;28;20008;-80
2024/02/26 04:48:42;;;;;;;12.02;7.93;;;;;;;;;;5070456;28;20025;-82
2024/02/26 04:51:08;;;;;;;8.48;3.28;;;;;;;;;;5063705;28;20159;-83
2024/02/26 04:53:34;;;;;;;8.90;5.50;;;;;;;;;;5071800;28;20028;-84
2024/02/26 04:56:00;;;;;;;5.72;2.85;;;;;;;;;;5071762;28;20032;-82
2024/02/26 04:58:26;;;;;;;7.32;3.45;;;;;;;;;;5071598;28;20020;-82
2024/02/26 05:00:52;;;;;;;7.47;3.08;;;;;;;;;;5071748;28;20025;-81
2024/02/26 05:03:18;;;;;;;11.55;7.13;;;;;;;;;;5071552;28;20043;-82
2024/02/26 05:05:45;;;;;;;7.07;3.70;;;;;;;;;;5071464;28;20029;-82
2024/02/26 05:08:11;;;;;;;7.85;3.70;;;;;;;;;;5071755;28;20043;-82
2024/02/26 05:10:41;;;;;;;11.25;4.88;;;;;;;;;;5071515;28;20505;-83
2024/02/26 05:13:07;;;;;;;9.45;6.25;;;;;;;;;;5071503;28;20020;-82
2024/02/26 05:15:36;;;;;;;6.18;2.33;;;;;;;;;;5070896;28;20056;-81
2024/02/26 05:18:02;;;;;;;7.65;3.78;;;;;;;;;;5072905;28;20020;-83
2024/02/26 05:20:29;;;;;;;8.98;2.78;;;;;;;;;;5070883;28;20020;-82
2024/02/26 05:22:55;;;;;;;10.95;7.65;;;;;;;;;;5071356;28;20025;-83
2024/02/26 05:25:21;;;;;;;9.50;2.97;;;;;;;;;;5071521;28;20035;-83
2024/02/26 05:27:47;;;;;;;7.50;4.35;;;;;;;;;;5070995;28;20029;-85
2024/02/26 05:30:13;;;;;;;9.23;5.03;;;;;;;;;;5072817;28;20027;-86
2024/02/26 05:32:39;;;;;;;14.75;8.35;;;;;;;;;;5072838;28;20020;-83
2024/02/26 05:35:05;;;;;;;10.60;4.60;;;;;;;;;;5071494;28;20043;-83
2024/02/26 05:37:32;;;;;;;10.18;5.78;;;;;;;;;;5071452;28;20016;-84
2024/02/26 05:39:58;;;;;;;10.40;6.03;;;;;;;;;;5071633;28;20052;-84
2024/02/26 05:42:24;;;;;;;12.00;6.75;;;;;;;;;;5071730;28;20119;-83
2024/02/26 05:44:50;;;;;;;8.90;5.35;;;;;;;;;;5071735;28;20040;-82
2024/02/26 05:47:17;;;;;;;14.30;5.40;;;;;;;;;;5072195;28;20078;-83
2024/02/26 05:49:43;;;;;;;11.82;7.95;;;;;;;;;;5071244;28;20491;-82
2024/02/26 05:52:09;;;;;;;13.02;8.10;;;;;;;;;;5071222;28;20495;-83
2024/02/26 05:54:35;;;;;;;7.32;3.13;;;;;;;;;;5072488;28;20025;-83
2024/02/26 05:57:01;;;;;;;8.27;3.58;;;;;;;;;;5071391;28;20163;-86
2024/02/26 05:59:28;;;;;;;7.60;4.03;;;;;;;;;;5071689;28;20020;-85
2024/02/26 06:01:54;;;;;;;7.97;4.88;;;;;;;;;;5071517;28;20020;-84
2024/02/26 06:04:20;;;;;;;7.70;4.10;;;;;;;;;;5072877;28;20091;-85
2024/02/26 06:06:46;;;;;;;8.80;5.55;;;;;;;;;;5071123;28;20503;-82
2024/02/26 06:09:12;;;;;;;12.43;6.60;;;;;;;;;;5070883;28;20028;-82
2024/02/26 06:11:38;;;;;;;11.45;6.28;;;;;;;;;;5071043;28;20033;-83
2024/02/26 06:14:04;;;;;;;11.73;5.07;;;;;;;;;;5070694;28;20052;-83
2024/02/26 06:16:30;;;;;;;9.02;3.88;;;;;;;;;;5070972;28;20039;-84
2024/02/26 06:18:56;;;;;;;14.10;7.43;;;;;;;;;;5072446;28;20048;-85
2024/02/26 06:21:23;;;;;;;8.93;5.55;;;;;;;;;;5071076;28;20027;-85
2024/02/26 06:23:50;;;;;;;11.93;7.45;;;;;;;;;;5072670;28;20028;-86
2024/02/26 06:26:16;;;;;;;10.23;5.93;;;;;;;;;;5072799;28;20074;-82
2024/02/26 06:28:42;;;;;;;12.57;7.57;;;;;;;;;;5075011;28;20021;-81
2024/02/26 06:31:08;;;;;;;11.02;7.10;;;;;;;;;;5080334;28;20013;-82
2024/02/26 06:33:34;;;;;;;15.57;7.03;;;;;;;;;;5082185;28;20024;-83
2024/02/26 06:36:00;;;;;;;19.45;5.15;;;;;;;;;;5086013;28;20021;-83
2024/02/26 06:38:26;;;;;;;13.45;6.22;;;;;;;;;;5077663;28;20025;-83
2024/02/26 06:40:53;;;;;;;12.73;4.75;;;;;;;;;;5087416;28;20051;-81
2024/02/26 06:43:19;;;;;;;17.88;8.25;;;;;;;;;;5083942;28;20028;-83
2024/02/26 06:45:45;;;;;;;15.93;6.90;;;;;;;;;;5092642;28;20017;-82
2024/02/26 06:48:11;;;;;;;21.20;6.43;;;;;;;;;;5083104;28;20040;-84
2024/02/26 06:50:37;;;;;;;14.52;8.43;;;;;;;;;;5075768;28;20017;-79
2024/02/26 06:53:03;;;;;;;12.60;6.60;;;;;;;;;;5073949;28;20029;-78
2024/02/26 06:55:29;;;;;;;17.25;10.40;;;;;;;;;;5073760;28;20020;-79
2024/02/26 06:57:55;;;;;;;17.38;10.15;;;;;;;;;;5073722;28;20025;-78
2024/02/26 07:00:21;;;;;;;10.90;5.45;;;;;;;;;;5073650;28;20020;-79
2024/02/26 07:02:47;;;;;;;14.32;6.43;;;;;;;;;;5073597;28;20043;-79
2024/02/26 07:05:13;;;;;;;13.15;6.05;;;;;;;;;;5075016;28;20052;-79
2024/02/26 07:07:40;;;;;;;17.63;9.75;;;;;;;;;;5073475;28;20035;-79
2024/02/26 07:10:06;;;;;;;15.60;10.35;;;;;;;;;;5075028;28;20016;-78
2024/02/26 07:12:32;;;;;;;18.38;9.23;;;;;;;;;;5073588;28;20025;-79
2024/02/26 07:14:58;;;;;;;20.42;9.50;;;;;;;;;;5073427;28;20202;-79
2024/02/26 07:17:24;;;;;;;10.52;5.57;;;;;;;;;;5073651;28;20032;-78
2024/02/26 07:19:50;;;;;;;19.80;7.80;;;;;;;;;;5073338;28;20035;-77
2024/02/26 07:22:17;;;;;;;18.30;10.07;;;;;;;;;;5073516;28;20035;-78
2024/02/26 07:24:43;;;;;;;13.90;5.80;;;;;;;;;;5073194;28;20078;-79
2024/02/26 07:27:09;;;;;;;15.65;9.32;;;;;;;;;;5073420;28;20468;-79
2024/02/26 07:29:35;;;;;;;20.98;12.85;;;;;;;;;;5073220;28;20464;-79
2024/02/26 07:32:01;;;;;;;20.88;12.02;;;;;;;;;;5072985;28;20035;-79
2024/02/26 07:34:30;;;;;;;16.50;9.52;;;;;;;;;;5073416;28;20028;-79
2024/02/26 07:36:56;;;;;;;21.40;10.50;;;;;;;;;;5073085;28;20028;-79
2024/02/26 07:39:22;;;;;;;29.88;12.15;;;;;;;;;;5073521;28;20120;-79
2024/02/26 07:41:51;;;;;;;20.13;12.38;;;;;;;;;;5072659;28;20082;-79
2024/02/26 07:44:17;;;;;;;17.77;8.23;;;;;;;;;;5073160;28;20028;-80
2024/02/26 07:46:43;;;;;;;23.30;12.75;;;;;;;;;;5074705;28;20028;-78
2024/02/26 07:49:09;;;;;;;29.52;16.50;;;;;;;;;;5073255;28;20454;-79
2024/02/26 07:51:35;;;;;;;20.23;11.05;;;;;;;;;;5072836;28;20476;-78
2024/02/26 07:54:01;;;;;;;24.30;13.95;;;;;;;;;;5072932;28;20049;-78
2024/02/26 07:56:27;;;;;;;22.23;10.60;;;;;;;;;;5072904;28;20067;-79
2024/02/26 07:58:53;;;;;;;19.10;11.73;;;;;;;;;;5072711;28;20067;-78
2024/02/26 08:01:19;;;;;;;31.05;16.65;;;;;;;;;;5072781;28;20082;-79
2024/02/26 08:03:45;;;;;;;20.83;7.85;;;;;;;;;;5073930;28;20056;-78
2024/02/26 08:06:11;;;;;;;15.77;7.57;;;;;;;;;;5072764;28;20106;-78
2024/02/26 08:08:37;;;;;;;21.50;11.13;;;;;;;;;;5073773;28;20032;-78
2024/02/26 08:11:04;;;;;;;26.50;15.43;;;;;;;;;;5074001;28;20376;-79
2024/02/26 08:13:30;;;;;;;19.05;7.70;;;;;;;;;;5072952;28;20035;-77
2024/02/26 08:15:56;;;;;;;25.88;15.05;;;;;;;;;;5071959;28;20060;-78
2024/02/26 08:18:22;;;;;;;17.02;8.95;;;;;;;;;;5072195;28;20024;-78
2024/02/26 08:20:48;;;;;;;18.98;9.65;;;;;;;;;;5071872;28;20028;-78
2024/02/26 08:23:14;;;;;;;22.35;12.85;;;;;;;;;;5072272;28;20119;-78
2024/02/26 08:25:40;;;;;;;24.42;12.80;;;;;;;;;;5072133;28;20472;-79
2024/02/26 08:28:07;;;;;;;21.23;11.30;;;;;;;;;;5072346;28;20027;-77
2024/02/26 08:30:34;;;;;;;17.75;7.75;;;;;;;;;;5072376;28;20056;-78
2024/02/26 08:33:00;;;;;;;19.38;9.30;;;;;;;;;;5072051;28;20029;-78
2024/02/26 08:35:26;;;;;;;16.52;9.60;;;;;;;;;;5072187;28;20028;-78
2024/02/26 08:37:52;;;;;;;21.50;12.85;;;;;;;;;;5072346;28;20032;-77
2024/02/26 08:40:19;;;;;;;22.63;13.02;;;;;;;;;;5072629;28;20173;-77
2024/02/26 08:42:45;;;;;;;15.43;9.40;;;;;;;;;;5072268;28;20056;-78
2024/02/26 08:45:12;;;;;;;23.50;13.52;;;;;;;;;;5072849;28;20047;-76
2024/02/26 08:47:38;;;;;;;26.55;14.23;;;;;;;;;;5072008;28;20116;-78
2024/02/26 08:50:05;;;;;;;24.75;13.63;;;;;;;;;;5071864;28;20103;-77
2024/02/26 08:52:31;;;;;;;21.77;13.00;;;;;;;;;;5073094;28;20047;-77
2024/02/26 08:54:57;;;;;;;27.33;13.73;;;;;;;;;;5070837;28;20866;-78
2024/02/26 08:57:23;;;;;;;23.80;12.88;;;;;;;;;;5072564;28;20032;-77
2024/02/26 08:59:49;;;;;;;27.77;13.70;;;;;;;;;;5071355;28;20032;-78
2024/02/26 09:02:17;;;;;;;25.75;13.18;;;;;;;;;;5072814;28;20089;-78
2024/02/26 09:04:43;;;;;;;18.77;9.15;;;;;;;;;;5072468;28;20031;-78
2024/02/26 09:07:09;;;;;;;21.25;9.05;;;;;;;;;;5071464;28;20037;-77
2024/02/26 09:09:35;;;;;;;18.20;8.60;;;;;;;;;;5072609;28;20066;-78
2024/02/26 09:12:01;;;;;;;19.83;10.57;;;;;;;;;;5072526;28;20450;-78
2024/02/26 09:14:27;;;;;;;21.20;11.32;;;;;;;;;;5071112;28;20052;-77
2024/02/26 09:16:53;;;;;;;18.90;8.65;;;;;;;;;;5071072;28;20032;-77
2024/02/26 09:19:19;;;;;;;35.70;18.20;;;;;;;;;;5071268;28;20024;-78
2024/02/26 09:21:46;;;;;;;26.58;13.45;;;;;;;;;;5072346;28;20035;-78
2024/02/26 09:24:12;;;;;;;17.50;9.13;;;;;;;;;;5072466;28;20024;-78
2024/02/26 09:26:38;;;;;;;19.92;9.70;;;;;;;;;;5071249;28;20027;-78
2024/02/26 09:29:05;;;;;;;25.40;13.40;;;;;;;;;;5072462;28;20062;-77
2024/02/26 09:31:31;;;;;;;19.17;9.73;;;;;;;;;;5070952;28;20033;-77
2024/02/26 09:33:57;;;;;;;25.83;13.50;;;;;;;;;;5070651;28;20028;-77
2024/02/26 09:36:23;;;;;;;26.30;13.88;;;;;;;;;;5071220;28;20020;-78
2024/02/26 09:38:49;;;;;;;25.83;15.05;;;;;;;;;;5070936;28;20031;-82
2024/02/26 09:41:16;;;;;;;24.80;14.05;;;;;;;;;;5071102;28;20385;-80
2024/02/26 09:43:44;;;;;;;25.85;13.75;;;;;;;;;;5070909;28;20027;-80
2024/02/26 09:46:10;;;;;;;22.42;12.00;;;;;;;;;;5071381;28;20502;-80
2024/02/26 09:48:37;;;;;;;24.48;12.35;;;;;;;;;;5071338;28;20036;-79
2024/02/26 09:51:04;;;;;;;19.50;9.95;;;;;;;;;;5070574;28;20083;-80
2024/02/26 09:53:35;;;;;;;18.02;9.43;;;;;;;;;;5070957;28;20081;-79
2024/02/26 09:56:01;;;;;;;17.95;8.68;;;;;;;;;;5071515;28;20428;-77
2024/02/26 09:58:29;;;;;;;22.17;10.98;;;;;;;;;;5071881;28;20441;-77
2024/02/26 10:00:58;;;;;;;21.83;11.45;;;;;;;;;;5070392;28;20024;-77
2024/02/26 10:03:29;;;;;;;26.93;12.53;;;;;;;;;;5070921;28;20029;-77
2024/02/26 10:05:55;;;;;;;20.00;9.50;;;;;;;;;;5072353;28;20426;-77
2024/02/26 10:08:22;;;;;;;30.15;17.00;;;;;;;;;;5075009;28;20471;-78
2024/02/26 10:10:48;;;;;;;21.08;10.40;;;;;;;;;;5074815;28;20472;-78
2024/02/26 10:13:14;;;;;;;21.38;11.82;;;;;;;;;;5076024;28;20020;-78
2024/02/26 10:15:40;;;;;;;18.33;8.55;;;;;;;;;;5074716;28;20045;-77
2024/02/26 10:18:06;;;;;;;20.90;10.07;;;;;;;;;;5074700;28;20039;-78
2024/02/26 10:20:33;;;;;;;27.17;11.18;;;;;;;;;;5074733;28;20483;-77
2024/02/26 10:22:59;;;;;;;20.08;10.10;;;;;;;;;;5074513;28;20416;-77
2024/02/26 10:25:25;;;;;;;16.20;8.93;;;;;;;;;;5074725;28;20025;-78
2024/02/26 10:27:51;;;;;;;21.73;11.88;;;;;;;;;;5075758;28;20016;-77
2024/02/26 10:30:18;;;;;;;20.58;9.82;;;;;;;;;;5075953;28;20150;-78
2024/02/26 10:32:45;;;;;;;17.27;10.13;;;;;;;;;;5075773;28;20024;-78
2024/02/26 10:35:11;;;;;;;19.48;11.23;;;;;;;;;;5074429;28;20064;-78
2024/02/26 10:37:38;;;;;;;17.95;10.00;;;;;;;;;;5074647;28;20021;-78
2024/02/26 10:40:04;;;;;;;16.35;9.18;;;;;;;;;;5075834;28;20095;-76
2024/02/26 10:42:31;;;;;;;15.45;8.07;;;;;;;;;;5074942;28;20046;-77
2024/02/26 10:44:58;;;;;;;22.25;13.23;;;;;;;;;;5074659;28;20479;-75
2024/02/26 10:47:24;;;;;;;16.85;8.48;;;;;;;;;;5074421;28;20499;-78
2024/02/26 10:49:51;;;;;;;15.43;8.05;;;;;;;;;;5074899;28;20464;-78
2024/02/26 10:52:19;;;;;;;15.45;9.18;;;;;;;;;;5073830;28;20024;-78
2024/02/26 10:54:48;;;;;;;19.77;11.88;;;;;;;;;;5073732;28;20377;-78
2024/02/26 10:57:14;;;;;;;17.75;9.55;;;;;;;;;;5075331;28;20021;-78
2024/02/26 10:59:41;;;;;;;14.45;7.85;;;;;;;;;;5073914;28;20460;-78
2024/02/26 11:02:09;;;;;;;12.57;7.85;;;;;;;;;;5073698;28;20059;-78
2024/02/26 11:04:35;;;;;;;16.35;7.80;;;;;;;;;;5073830;28;20056;-78
2024/02/26 11:07:01;;;;;;;14.60;7.85;;;;;;;;;;5073646;28;20059;-77
2024/02/26 11:09:27;;;;;;;15.68;8.57;;;;;;;;;;5073896;28;20016;-78
2024/02/26 11:11:54;;;;;;;18.23;11.15;;;;;;;;;;5073655;28;20060;-77
2024/02/26 11:14:21;;;;;;;15.63;8.15;;;;;;;;;;5075121;28;20059;-77
2024/02/26 11:16:48;;;;;;;17.25;9.75;;;;;;;;;;5074784;28;20021;-78
2024/02/26 11:19:14;;;;;;;10.52;6.03;;;;;;;;;;5073527;28;20028;-78
2024/02/26 11:21:41;;;;;;;20.52;12.88;;;;;;;;;;5073580;28;20045;-77
2024/02/26 11:24:18;;;;;;;17.17;11.30;;;;;;;;;;5073400;28;20016;-77
2024/02/26 11:26:58;;;;;;;18.95;10.80;;;;;;;;;;5073629;28;20062;-78
2024/02/26 11:29:24;;;;;;;;;;;;;;;;;;5073872;28;20070;-78
2024/02/26 11:31:51;;;;;;;20.80;12.38;;;;;;;;;;5074422;28;19908;-77
2024/02/26 11:34:17;;;;;;;19.30;12.15;;;;;;;;;;5073205;28;20051;-78
2024/02/26 11:36:43;;;;;;;20.73;12.00;;;;;;;;;;5073316;28;20033;-77
2024/02/26 11:39:12;;;;;;;17.00;10.05;;;;;;;;;;5072661;28;20025;-79
2024/02/26 11:41:39;;;;;;;16.05;8.52;;;;;;;;;;5073042;28;20170;-77
2024/02/26 11:44:06;;;;;;;21.70;13.80;;;;;;;;;;5072868;28;20017;-77
2024/02/26 11:46:43;;;;;;;25.30;11.95;;;;;;;;;;5074625;28;20023;-77
2024/02/26 11:49:25;;;;;;;13.88;7.32;;;;;;;;;;5072742;28;20033;-77
2024/02/26 11:51:52;;;;;;;13.45;8.20;;;;;;;;;;5073991;28;20460;-77
2024/02/26 11:54:37;;;;;;;12.45;6.05;;;;;;;;;;5072954;28;20035;-77
2024/02/26 11:57:03;;;;;;;13.20;6.80;;;;;;;;;;5074239;28;20029;-77
2024/02/26 11:59:38;;;;;;;16.60;9.60;;;;;;;;;;5072771;28;20055;-77
2024/02/26 12:02:04;;;;;;;11.80;6.85;;;;;;;;;;5072622;28;20111;-77
2024/02/26 12:04:32;;;;;;;15.63;9.30;;;;;;;;;;5074071;28;20081;-77
2024/02/26 12:07:01;;;;;;;17.90;10.77;;;;;;;;;;5073576;28;20016;-77
2024/02/26 12:09:31;;;;;;;10.38;6.18;;;;;;;;;;5072721;28;20025;-77
2024/02/26 12:11:58;;;;;;;12.40;6.65;;;;;;;;;;5072438;28;20031;-77
2024/02/26 12:14:27;;;;;;;13.18;7.90;;;;;;;;;;5072166;28;20059;-77
2024/02/26 12:16:53;;;;;;;13.15;7.63;;;;;;;;;;5072175;28;20016;-78
2024/02/26 12:19:19;;;;;;;11.77;6.55;;;;;;;;;;5072914;28;20024;-78
2024/02/26 12:21:51;;;;;;;14.98;8.52;;;;;;;;;;5074145;28;20032;-78
2024/02/26 12:24:19;;;;;;;10.40;6.13;;;;;;;;;;5072531;28;20024;-78
2024/02/26 12:26:45;;;;;;;13.80;8.55;;;;;;;;;;5072640;28;20051;-78
2024/02/26 12:29:12;;;;;;;14.00;9.02;;;;;;;;;;5071343;28;20035;-78
2024/02/26 12:31:38;;;;;;;12.18;6.40;;;;;;;;;;5073513;28;20031;-78
2024/02/26 12:34:05;;;;;;;13.93;7.97;;;;;;;;;;5073443;28;20020;-78
2024/02/26 12:36:31;;;;;;;13.15;7.80;;;;;;;;;;5072637;28;20031;-79
2024/02/26 12:38:57;;;;;;;11.95;7.22;;;;;;;;;;5073379;28;20040;-75
2024/02/26 12:41:23;;;;;;;12.35;5.80;;;;;;;;;;5073513;28;20052;-76
2024/02/26 12:43:49;;;;;;;10.68;6.43;;;;;;;;;;5072726;28;20036;-76
2024/02/26 12:46:16;;;;;;;16.83;7.57;;;;;;;;;;5073694;28;20024;-77
2024/02/26 12:48:45;;;;;;;11.30;6.35;;;;;;;;;;5072169;28;20170;-78
2024/02/26 12:51:12;;;;;;;13.93;6.93;;;;;;;;;;5071839;28;20070;-78
2024/02/26 12:53:39;;;;;;;10.85;6.18;;;;;;;;;;5071978;28;20263;-77
2024/02/26 12:56:07;;;;;;;15.23;8.38;;;;;;;;;;5071466;28;20123;-77
2024/02/26 12:58:34;;;;;;;13.45;7.53;;;;;;;;;;5071672;28;20107;-78
2024/02/26 13:01:00;;;;;;;10.32;6.55;;;;;;;;;;5071496;28;20024;-78
2024/02/26 13:03:27;;;;;;;12.40;6.30;;;;;;;;;;5073015;28;20103;-78
2024/02/26 13:05:53;;;;;;;9.57;5.85;;;;;;;;;;5071345;28;20427;-78
2024/02/26 13:08:23;;;;;;;9.05;4.88;;;;;;;;;;5071429;28;20070;-78
2024/02/26 13:10:51;;;;;;;12.70;7.95;;;;;;;;;;5071367;28;20033;-78
2024/02/26 13:13:18;;;;;;;11.55;5.82;;;;;;;;;;5071464;28;20021;-78
2024/02/26 13:15:44;;;;;;;10.45;4.97;;;;;;;;;;5072765;28;20044;-78
2024/02/26 13:18:11;;;;;;;9.43;6.40;;;;;;;;;;5072512;28;20021;-78
2024/02/26 13:20:37;;;;;;;11.88;6.95;;;;;;;;;;5071244;28;20526;-77
2024/02/26 13:23:04;;;;;;;14.77;9.02;;;;;;;;;;5072545;28;20028;-77
2024/02/26 13:25:30;;;;;;;8.02;4.85;;;;;;;;;;5071239;28;20032;-77
2024/02/26 13:28:29;;;;;;;12.70;7.72;;;;;;;;;;5072785;28;20016;-78
2024/02/26 13:30:57;;;;;;;9.07;5.40;;;;;;;;;;5048697;28;20038;-78
2024/02/26 13:33:23;;;;;;;10.63;6.35;;;;;;;;;;5071182;28;20023;-78
2024/02/26 13:35:49;;;;;;;14.70;8.38;;;;;;;;;;5071220;28;20119;-78
2024/02/26 13:38:15;;;;;;;12.88;8.38;;;;;;;;;;5071159;28;20060;-78
2024/02/26 13:40:41;;;;;;;12.38;7.03;;;;;;;;;;5070715;28;20029;-77
2024/02/26 13:43:07;;;;;;;10.57;6.65;;;;;;;;;;5072350;28;20020;-77
2024/02/26 13:45:37;;;;;;;11.48;6.50;;;;;;;;;;5070984;28;20490;-77
2024/02/26 13:48:04;;;;;;;10.95;6.38;;;;;;;;;;5070743;28;20476;-78
2024/02/26 13:50:30;;;;;;;10.63;7.07;;;;;;;;;;5070994;28;20035;-78
2024/02/26 13:52:57;;;;;;;8.48;5.03;;;;;;;;;;5072043;28;20021;-78
2024/02/26 13:55:25;;;;;;;14.13;7.47;;;;;;;;;;5070827;28;20098;-78
2024/02/26 13:57:53;;;;;;;8.48;4.93;;;;;;;;;;5070529;28;20032;-77
2024/02/26 14:00:20;;;;;;;11.20;7.25;;;;;;;;;;5070667;28;20039;-78
2024/02/26 14:02:46;;;;;;;8.25;4.63;;;;;;;;;;5070811;28;20028;-78
2024/02/26 14:05:12;;;;;;;18.55;10.77;;;;;;;;;;5071627;28;20024;-78
2024/02/26 14:07:38;;;;;;;7.75;4.78;;;;;;;;;;5070758;28;20032;-76
2024/02/26 14:10:05;;;;;;;11.27;6.97;;;;;;;;;;5070253;28;20380;-78
2024/02/26 14:12:31;;;;;;;10.48;5.57;;;;;;;;;;5070468;28;20029;-77
2024/02/26 14:15:00;;;;;;;8.88;5.13;;;;;;;;;;5070069;28;20112;-78
2024/02/26 14:17:26;;;;;;;10.27;6.78;;;;;;;;;;5070416;28;20021;-78
2024/02/26 14:19:52;;;;;;;10.50;6.32;;;;;;;;;;5070102;28;20029;-78
2024/02/26 14:22:18;;;;;;;14.23;8.70;;;;;;;;;;5070724;28;20081;-77
2024/02/26 14:24:44;;;;;;;8.85;5.15;;;;;;;;;;5070324;28;20056;-77
2024/02/26 14:27:17;;;;;;;9.13;5.80;;;;;;;;;;5071515;28;20491;-78
2024/02/26 14:29:43;;;;;;;13.57;8.15;;;;;;;;;;5070711;28;20025;-79